Triple Star — 3EDA5 — position and weather

sailwx.info

Track history (hours):
 
Tides and Currents Weather Stations Pressure Air Temp Water Temp Dewpoint Dewpoint Depression Visibility Wind Speed Wind Dir Waves Ship Positions

Triple Star

Last reported at 2018-Feb-04 21:30 UTC. Time now 2018-Apr-26 07:55 UTC.
Position S 35°17' E 138°07'.
Warning: this ship's position is months out of date.

Date/timePositionNaut miles runAvg speedWind from/ knotsBaromVisibWave heightAir tempDewpointWater temp
2018-Feb-04 21:30S 35°17' E 138°07'55012.5
2018-Feb-03 01:21S 38°28' E 148°52'713.5
2018-Feb-03 00:52S 38°25' E 149°00'613.7
2018-Feb-03 00:27S 38°22' E 149°06'  
2018-Jan-31 17:23S 28°21' E 154°10'910.2
2018-Jan-31 16:28S 28°12' E 154°11'12 9.7
2018-Jan-31 15:15S 28°00' E 154°12'711.6
2018-Jan-31 14:38S 27°54' E 154°09'412.0
2018-Jan-31 14:21S 27°50' E 154°07'  
Track history (hours):
 
Tides and Currents Weather Stations Pressure Air Temp Water Temp Dewpoint Dewpoint Depression Visibility Wind Speed Wind Dir Waves Ship Positions

Triple Star

Last reported at 2018-Feb-04 21:30 UTC. Time now 2018-Apr-26 07:55 UTC.
Position S 35°17' E 138°07'.
Warning: this ship's position is months out of date.

Date/timePositionNaut miles runAvg speedWind from/ knotsBaromVisibWave heightAir tempDewpointWater temp
2018-Feb-04 21:30S 35°17' E 138°07'55012.5
2018-Feb-03 01:21S 38°28' E 148°52'713.5
2018-Feb-03 00:52S 38°25' E 149°00'613.7
2018-Feb-03 00:27S 38°22' E 149°06'  
2018-Jan-31 17:23S 28°21' E 154°10'910.2
2018-Jan-31 16:28S 28°12' E 154°11'12 9.7
2018-Jan-31 15:15S 28°00' E 154°12'711.6
2018-Jan-31 14:38S 27°54' E 154°09'412.0
2018-Jan-31 14:21S 27°50' E 154°07'  

Dump ship's entire track history